sensor_id;sensor_type;location;lat;lon;timestamp;P1;durP1;ratioP1;P2;durP2;ratioP2
21729;SDS011;11027;51.030;13.812;2022-10-13T00:10:03;13.85;;;8.65;;
21729;SDS011;11027;51.030;13.812;2022-10-13T00:12:29;14.85;;;7.25;;
21729;SDS011;11027;51.030;13.812;2022-10-13T00:14:54;16.30;;;7.18;;
21729;SDS011;11027;51.030;13.812;2022-10-13T00:17:20;12.77;;;7.03;;
21729;SDS011;11027;51.030;13.812;2022-10-13T00:19:45;11.85;;;6.82;;
21729;SDS011;11027;51.030;13.812;2022-10-13T00:22:10;9.57;;;6.75;;
21729;SDS011;11027;51.030;13.812;2022-10-13T00:24:36;16.02;;;6.47;;
21729;SDS011;11027;51.030;13.812;2022-10-13T00:27:01;9.45;;;6.28;;
21729;SDS011;11027;51.030;13.812;2022-10-13T00:29:26;9.48;;;6.38;;
21729;SDS011;11027;51.030;13.812;2022-10-13T00:31:51;10.15;;;7.00;;
21729;SDS011;11027;51.030;13.812;2022-10-13T00:34:17;13.32;;;6.90;;
21729;SDS011;11027;51.030;13.812;2022-10-13T00:36:42;14.18;;;6.45;;
21729;SDS011;11027;51.030;13.812;2022-10-13T00:39:07;12.35;;;6.57;;
21729;SDS011;11027;51.030;13.812;2022-10-13T00:41:32;10.95;;;5.90;;
21729;SDS011;11027;51.030;13.812;2022-10-13T00:46:31;11.68;;;6.22;;
21729;SDS011;11027;51.030;13.812;2022-10-13T00:49:03;13.63;;;6.07;;
21729;SDS011;11027;51.030;13.812;2022-10-13T00:51:32;13.40;;;6.38;;
21729;SDS011;11027;51.030;13.812;2022-10-13T00:54:02;10.77;;;6.72;;
21729;SDS011;11027;51.030;13.812;2022-10-13T00:56:30;15.15;;;6.63;;
21729;SDS011;11027;51.030;13.812;2022-10-13T00:58:56;13.18;;;6.95;;
21729;SDS011;11027;51.030;13.812;2022-10-13T01:01:22;13.73;;;7.20;;
21729;SDS011;11027;51.030;13.812;2022-10-13T01:03:47;10.85;;;6.93;;
21729;SDS011;11027;51.030;13.812;2022-10-13T01:06:12;13.73;;;6.95;;
21729;SDS011;11027;51.030;13.812;2022-10-13T01:08:39;12.38;;;7.50;;
21729;SDS011;11027;51.030;13.812;2022-10-13T01:13:42;10.50;;;6.70;;
21729;SDS011;11027;51.030;13.812;2022-10-13T01:16:33;12.02;;;7.00;;
21729;SDS011;11027;51.030;13.812;2022-10-13T01:28:02;14.18;;;7.43;;
21729;SDS011;11027;51.030;13.812;2022-10-13T01:30:36;13.60;;;6.65;;
21729;SDS011;11027;51.030;13.812;2022-10-13T01:33:39;16.10;;;7.00;;
21729;SDS011;11027;51.030;13.812;2022-10-13T01:36:52;13.20;;;6.68;;
21729;SDS011;11027;51.030;13.812;2022-10-13T10:43:46;11.93;;;7.53;;
21729;SDS011;11027;51.030;13.812;2022-10-13T10:46:30;16.20;;;8.35;;
21729;SDS011;11027;51.030;13.812;2022-10-13T10:49:01;14.60;;;8.50;;
21729;SDS011;11027;51.030;13.812;2022-10-13T10:51:36;14.90;;;7.80;;
21729;SDS011;11027;51.030;13.812;2022-10-13T10:54:11;16.15;;;8.02;;
21729;SDS011;11027;51.030;13.812;2022-10-13T10:56:48;18.95;;;7.60;;
21729;SDS011;11027;51.030;13.812;2022-10-13T11:07:00;12.80;;;6.82;;
21729;SDS011;11027;51.030;13.812;2022-10-13T11:12:25;14.00;;;7.60;;
21729;SDS011;11027;51.030;13.812;2022-10-13T11:15:23;15.35;;;7.72;;
21729;SDS011;11027;51.030;13.812;2022-10-13T11:17:55;13.30;;;7.53;;
21729;SDS011;11027;51.030;13.812;2022-10-13T11:25:42;17.25;;;8.02;;
21729;SDS011;11027;51.030;13.812;2022-10-13T11:41:20;14.20;;;6.38;;
21729;SDS011;11027;51.030;13.812;2022-10-13T11:46:37;14.60;;;6.18;;
21729;SDS011;11027;51.030;13.812;2022-10-13T11:54:49;13.80;;;6.85;;
21729;SDS011;11027;51.030;13.812;2022-10-13T11:57:20;13.20;;;6.73;;
21729;SDS011;11027;51.030;13.812;2022-10-13T11:59:48;13.93;;;6.40;;
21729;SDS011;11027;51.030;13.812;2022-10-13T12:02:18;19.90;;;6.45;;
21729;SDS011;11027;51.030;13.812;2022-10-13T12:05:32;14.77;;;5.95;;
21729;SDS011;11027;51.030;13.812;2022-10-13T12:07:46;10.48;;;5.93;;
21729;SDS011;11027;51.030;13.812;2022-10-13T12:10:19;12.07;;;5.68;;
21729;SDS011;11027;51.030;13.812;2022-10-13T12:12:53;9.15;;;5.43;;
